createdAt,value
2022-10-29T00:02:02.565Z,12.40
2022-10-29T00:06:09.127Z,12.38
2022-10-29T00:10:12.360Z,12.39
2022-10-29T00:14:15.394Z,12.40
2022-10-29T00:18:18.983Z,12.41
2022-10-29T00:22:23.913Z,12.41
2022-10-29T00:26:30.762Z,12.39
2022-10-29T00:30:33.897Z,12.41
2022-10-29T00:34:38.919Z,12.40
2022-10-29T00:38:44.211Z,12.41
2022-10-29T00:42:47.454Z,12.41
2022-10-29T00:46:53.797Z,12.40
2022-10-29T00:50:59.035Z,12.40
2022-10-29T00:55:08.642Z,12.39
2022-10-29T00:59:11.784Z,12.41
2022-10-29T01:03:14.944Z,12.43
2022-10-29T01:07:18.161Z,12.45
2022-10-29T01:11:33.338Z,12.46
2022-10-29T01:15:44.223Z,12.45
2022-10-29T01:20:09.483Z,12.47
2022-10-29T01:24:46.877Z,12.46
2022-10-29T01:29:08.504Z,12.47
2022-10-29T01:33:18.328Z,12.44
2022-10-29T01:37:25.812Z,12.46
2022-10-29T01:41:40.693Z,12.45
2022-10-29T01:45:49.734Z,12.46
2022-10-29T01:50:00.214Z,12.46
2022-10-29T01:54:08.289Z,12.47
2022-10-29T01:58:12.748Z,12.47
2022-10-29T02:02:26.685Z,12.44
2022-10-29T02:06:43.763Z,12.44
2022-10-29T02:10:54.277Z,12.42
2022-10-29T02:15:03.868Z,12.40
2022-10-29T02:19:07.237Z,12.38
2022-10-29T02:23:12.168Z,12.35
2022-10-29T02:27:15.297Z,12.29
2022-10-29T02:31:18.330Z,12.25
2022-10-29T02:35:21.300Z,12.21
2022-10-29T02:39:25.883Z,12.20
2022-10-29T02:43:28.907Z,12.19
2022-10-29T02:47:31.912Z,12.20
2022-10-29T02:51:35.421Z,12.23
2022-10-29T02:55:39.852Z,12.23
2022-10-29T02:59:43.049Z,12.23
2022-10-29T03:03:46.070Z,12.24
2022-10-29T03:07:49.162Z,12.28
2022-10-29T03:11:53.544Z,12.29
2022-10-29T03:15:56.706Z,12.24
2022-10-29T03:19:59.944Z,12.19
2022-10-29T03:24:02.979Z,12.19
2022-10-29T03:28:07.659Z,12.21
2022-10-29T03:32:10.647Z,12.23
2022-10-29T03:36:13.857Z,12.25
2022-10-29T03:40:19.347Z,12.25
2022-10-29T03:44:23.810Z,12.27
2022-10-29T03:48:27.133Z,12.23
2022-10-29T03:52:30.295Z,12.25
2022-10-29T03:56:33.315Z,12.26
2022-10-29T04:00:37.882Z,12.27
2022-10-29T04:04:40.930Z,12.30
2022-10-29T04:08:44.299Z,12.32
2022-10-29T04:12:47.793Z,12.34
2022-10-29T04:16:52.194Z,12.30
2022-10-29T04:29:41.505Z,12.30
2022-10-29T04:33:46.229Z,12.28
2022-10-29T04:37:49.484Z,12.27
2022-10-29T04:41:52.537Z,12.28
2022-10-29T04:45:56.667Z,12.30
2022-10-29T04:50:01.114Z,12.30
2022-10-29T04:54:04.147Z,12.29
2022-10-29T04:58:08.110Z,12.31
2022-10-29T05:02:11.711Z,12.31
2022-10-29T05:06:16.080Z,12.32
2022-10-29T05:10:19.080Z,12.32
2022-10-29T05:14:22.117Z,12.30
2022-10-29T05:18:25.486Z,12.29
2022-10-29T05:22:29.893Z,12.27
2022-10-29T05:26:33.299Z,12.28
2022-10-29T05:30:36.677Z,12.27
2022-10-29T05:34:44.367Z,12.25
2022-10-29T05:38:49.121Z,12.22
2022-10-29T05:42:52.189Z,12.23
2022-10-29T05:46:55.318Z,12.22
2022-10-29T05:50:58.468Z,12.22
2022-10-29T05:55:03.061Z,12.19
2022-10-29T05:59:06.087Z,12.18
2022-10-29T06:03:14.026Z,12.17
2022-10-29T06:07:17.224Z,12.17
2022-10-29T06:11:21.824Z,12.17
2022-10-29T06:15:24.886Z,12.17
2022-10-29T06:19:27.903Z,12.21
2022-10-29T06:23:31.173Z,12.23
2022-10-29T06:27:35.708Z,12.24
2022-10-29T06:31:38.948Z,12.25
2022-10-29T06:35:42.088Z,12.25
2022-10-29T06:39:45.311Z,12.29
2022-10-29T06:43:49.825Z,12.30
2022-10-29T06:47:53.276Z,12.31
2022-10-29T06:51:56.484Z,12.32
2022-10-29T06:56:00.281Z,12.34
2022-10-29T07:00:08.433Z,12.32
2022-10-29T07:04:11.770Z,12.33
2022-10-29T07:08:15.085Z,12.45
2022-10-29T07:12:18.153Z,12.52
2022-10-29T07:16:22.550Z,12.45
2022-10-29T07:20:26.440Z,12.43
2022-10-29T07:24:29.649Z,12.43
2022-10-29T07:28:32.858Z,12.41
2022-10-29T07:32:37.222Z,12.40
2022-10-29T07:36:40.215Z,12.42
2022-10-29T07:40:48.596Z,12.41
2022-10-29T07:44:51.630Z,12.42
2022-10-29T07:48:56.000Z,12.45
2022-10-29T07:53:00.659Z,12.48
2022-10-29T07:57:03.859Z,12.51
2022-10-29T08:01:07.367Z,12.50
2022-10-29T08:05:11.861Z,12.49
2022-10-29T08:09:15.000Z,12.48
2022-10-29T08:13:18.031Z,12.46
2022-10-29T08:17:21.038Z,12.44
2022-10-29T08:21:25.511Z,12.43
2022-10-29T08:25:29.144Z,12.42
2022-10-29T08:29:32.270Z,12.38
2022-10-29T08:33:35.335Z,12.35
2022-10-29T08:37:43.279Z,12.34
2022-10-29T08:41:57.458Z,12.35
2022-10-29T08:46:01.457Z,12.35
2022-10-29T08:50:13.047Z,12.34
2022-10-29T08:54:31.130Z,12.35
2022-10-29T08:58:38.659Z,12.38
2022-10-29T09:02:41.804Z,12.38
2022-10-29T09:06:52.762Z,12.38
2022-10-29T09:11:01.311Z,12.38
2022-10-29T09:15:26.296Z,12.33
2022-10-29T09:19:42.860Z,12.35
2022-10-29T09:23:58.479Z,12.34
2022-10-29T09:28:21.243Z,12.37
2022-10-29T09:32:28.580Z,12.42
2022-10-29T09:36:32.631Z,12.45
2022-10-29T09:40:38.885Z,12.50
2022-10-29T09:44:51.189Z,12.53
2022-10-29T09:49:04.457Z,12.57
2022-10-29T09:53:09.216Z,12.59
2022-10-29T09:57:20.792Z,12.64
2022-10-29T10:01:25.443Z,12.69
2022-10-29T10:05:30.876Z,12.73
2022-10-29T10:09:55.410Z,12.73
2022-10-29T10:14:00.950Z,12.73
2022-10-29T10:18:07.196Z,12.75
2022-10-29T10:22:19.930Z,12.76
2022-10-29T10:26:34.979Z,12.75
2022-10-29T10:30:38.010Z,12.77
2022-10-29T10:34:42.685Z,12.76
2022-10-29T10:38:48.342Z,12.78
2022-10-29T10:42:54.404Z,12.82
2022-10-29T10:47:00.408Z,12.86
2022-10-29T10:51:17.487Z,12.87
2022-10-29T10:55:25.314Z,12.86
2022-10-29T10:59:38.842Z,12.85
2022-10-29T11:03:47.297Z,12.86
2022-10-29T11:07:59.164Z,12.90
2022-10-29T11:12:07.280Z,12.93
2022-10-29T11:16:17.762Z,12.98
2022-10-29T11:20:25.231Z,13.01
2022-10-29T11:24:40.126Z,13.05
2022-10-29T11:28:48.850Z,13.06
2022-10-29T11:33:01.237Z,13.05
2022-10-29T11:37:13.501Z,13.10
2022-10-29T11:41:26.397Z,13.16
2022-10-29T11:45:41.220Z,13.20
2022-10-29T11:50:00.786Z,13.20
2022-10-29T11:54:08.248Z,13.21
2022-10-29T11:58:19.520Z,13.23
2022-10-29T12:02:33.520Z,13.23
2022-10-29T12:06:42.810Z,13.21
2022-10-29T12:10:51.943Z,13.22
2022-10-29T12:15:05.191Z,13.24
2022-10-29T12:19:19.564Z,13.24
2022-10-29T12:23:37.592Z,13.22
2022-10-29T12:27:47.098Z,13.19
2022-10-29T12:31:58.178Z,13.18
2022-10-29T12:36:09.331Z,13.16
2022-10-29T12:40:19.388Z,13.17
2022-10-29T12:44:31.230Z,13.21
2022-10-29T12:48:43.098Z,13.21
2022-10-29T12:52:51.214Z,13.18
2022-10-29T12:56:56.606Z,13.16
2022-10-29T13:01:00.044Z,13.13
2022-10-29T13:05:38.598Z,13.13
2022-10-29T13:09:44.306Z,13.10
2022-10-29T13:13:57.514Z,13.11
2022-10-29T13:18:07.449Z,13.09
2022-10-29T13:26:57.789Z,13.10
2022-10-29T13:31:34.182Z,13.10
2022-10-29T13:35:41.847Z,13.07
2022-10-29T13:39:44.905Z,13.07
2022-10-29T13:43:58.869Z,13.05
2022-10-29T13:48:06.163Z,13.07
2022-10-29T13:52:16.029Z,13.09
2022-10-29T13:56:26.362Z,13.10
2022-10-29T14:00:31.733Z,13.06
2022-10-29T14:04:40.134Z,13.07
2022-10-29T14:08:48.990Z,13.10
2022-10-29T14:12:56.743Z,13.10
2022-10-29T14:17:16.608Z,13.06
2022-10-29T14:21:24.491Z,13.04
2022-10-29T14:25:31.892Z,13.04
2022-10-29T14:29:34.927Z,13.02
2022-10-29T14:33:41.479Z,12.99
2022-10-29T14:37:46.427Z,12.97
2022-10-29T14:41:51.104Z,12.99
2022-10-29T14:45:55.886Z,12.97
2022-10-29T14:50:02.865Z,12.96
2022-10-29T14:54:08.786Z,12.94
2022-10-29T14:58:19.041Z,12.97
2022-10-29T15:02:39.413Z,12.98
2022-10-29T15:06:44.206Z,12.98
2022-10-29T15:10:49.967Z,12.94
2022-10-29T15:14:54.647Z,12.91
2022-10-29T15:18:58.742Z,12.88
2022-10-29T15:23:03.830Z,12.88
2022-10-29T15:27:07.555Z,12.85
2022-10-29T15:31:20.569Z,12.87
2022-10-29T15:35:24.834Z,12.86
2022-10-29T15:39:50.410Z,12.83
2022-10-29T15:43:55.920Z,12.80
2022-10-29T15:48:19.555Z,12.78
2022-10-29T15:52:28.175Z,12.76
2022-10-29T15:56:32.858Z,12.77
2022-10-29T16:00:36.264Z,12.73
2022-10-29T16:04:39.408Z,12.66
2022-10-29T16:08:45.193Z,12.61
2022-10-29T16:12:50.516Z,12.63
2022-10-29T16:16:53.551Z,12.62
2022-10-29T16:21:05.429Z,12.62
2022-10-29T16:25:16.643Z,12.60
2022-10-29T16:29:21.205Z,12.53
2022-10-29T16:33:24.434Z,12.51
2022-10-29T16:37:27.499Z,12.49
2022-10-29T16:41:31.573Z,12.47
2022-10-29T16:45:36.597Z,12.50
2022-10-29T16:49:39.578Z,12.52
2022-10-29T16:53:42.875Z,12.55
2022-10-29T16:57:46.037Z,12.54
2022-10-29T17:01:50.469Z,12.54
2022-10-29T17:05:53.517Z,12.59
2022-10-29T17:09:56.592Z,12.61
2022-10-29T17:13:59.557Z,12.60
2022-10-29T17:18:03.969Z,12.57
2022-10-29T17:22:10.568Z,12.57
2022-10-29T17:26:13.631Z,12.53
2022-10-29T17:30:16.711Z,12.52
2022-10-29T17:34:21.069Z,12.49
2022-10-29T17:38:24.077Z,12.49
2022-10-29T17:42:27.504Z,12.51
2022-10-29T17:46:30.723Z,12.52
2022-10-29T17:50:35.285Z,12.52
2022-10-29T17:54:38.595Z,12.50
2022-10-29T17:58:41.591Z,12.48
2022-10-29T18:02:44.700Z,12.46
2022-10-29T18:06:49.218Z,12.48
2022-10-29T18:10:53.580Z,12.46
2022-10-29T18:14:56.601Z,12.46
2022-10-29T18:19:03.119Z,12.48
2022-10-29T18:23:07.748Z,12.48
2022-10-29T18:27:10.801Z,12.47
2022-10-29T18:31:13.811Z,12.46
2022-10-29T18:35:17.135Z,12.45
2022-10-29T18:39:21.526Z,12.44
2022-10-29T18:43:26.429Z,12.44
2022-10-29T18:47:29.437Z,12.45
2022-10-29T18:51:33.233Z,12.44
2022-10-29T18:55:37.864Z,12.44
2022-10-29T18:59:40.962Z,12.42
2022-10-29T19:03:44.842Z,12.41
2022-10-29T19:07:47.845Z,12.38
2022-10-29T19:11:55.409Z,12.35
2022-10-29T19:16:02.865Z,12.34
2022-10-29T19:20:06.941Z,12.27
2022-10-29T19:24:14.258Z,12.26
2022-10-29T19:28:18.637Z,12.25
2022-10-29T19:32:21.672Z,12.24
2022-10-29T19:36:26.072Z,12.23
2022-10-29T19:40:30.070Z,12.23
2022-10-29T19:44:34.621Z,12.22
2022-10-29T19:48:37.687Z,12.22
2022-10-29T19:52:40.681Z,12.23
2022-10-29T19:56:43.709Z,12.20
2022-10-29T20:00:48.179Z,12.17
2022-10-29T20:04:51.258Z,12.17
2022-10-29T20:08:54.307Z,12.17
2022-10-29T20:12:58.209Z,12.15
2022-10-29T20:17:03.113Z,12.12
2022-10-29T20:21:07.215Z,12.13
2022-10-29T20:25:10.588Z,12.15
2022-10-29T20:29:15.344Z,12.17
2022-10-29T20:33:19.818Z,12.19
2022-10-29T20:37:22.927Z,12.13
2022-10-29T20:41:26.305Z,12.11
2022-10-29T20:45:29.302Z,12.09
2022-10-29T20:49:33.731Z,12.12
2022-10-29T20:53:36.987Z,12.09
2022-10-29T20:57:40.109Z,12.05
2022-10-29T21:01:51.843Z,12.02
2022-10-29T21:06:01.757Z,12.00
2022-10-29T21:10:05.569Z,12.00
2022-10-29T21:14:08.688Z,12.02
2022-10-29T21:18:11.713Z,12.03
2022-10-29T21:22:18.869Z,12.03
2022-10-29T21:26:24.182Z,12.04
2022-10-29T21:30:27.284Z,12.07
2022-10-29T21:34:30.274Z,12.09
2022-10-29T21:38:34.859Z,12.08
2022-10-29T21:42:38.002Z,12.06
2022-10-29T21:46:41.035Z,12.06
2022-10-29T21:50:44.128Z,12.02
2022-10-29T21:54:48.530Z,11.98
2022-10-29T21:58:52.392Z,11.95
2022-10-29T22:02:57.978Z,11.95
2022-10-29T22:07:04.645Z,11.88
2022-10-29T22:11:09.443Z,11.82
2022-10-29T22:15:13.558Z,11.79
2022-10-29T22:19:16.554Z,11.77
2022-10-29T22:23:19.577Z,11.75
2022-10-29T22:27:24.033Z,11.76
2022-10-29T22:31:27.543Z,11.75
2022-10-29T22:35:30.618Z,11.75
2022-10-29T22:39:33.627Z,11.77
2022-10-29T22:43:38.862Z,11.76
2022-10-29T22:47:41.902Z,11.74
2022-10-29T22:51:45.174Z,11.69
2022-10-29T22:55:52.906Z,11.64
2022-10-29T22:59:57.314Z,11.64
2022-10-29T23:04:01.068Z,11.66
2022-10-29T23:08:04.313Z,11.66
2022-10-29T23:12:07.687Z,11.67
2022-10-29T23:16:12.069Z,11.68
2022-10-29T23:20:15.166Z,11.70
2022-10-29T23:24:18.281Z,11.70
2022-10-29T23:28:21.443Z,11.71
2022-10-29T23:32:25.855Z,11.75
2022-10-29T23:36:29.001Z,11.74
2022-10-29T23:40:32.121Z,11.72
2022-10-29T23:44:35.138Z,11.70
2022-10-29T23:48:39.556Z,11.66
2022-10-29T23:52:42.649Z,11.65
2022-10-29T23:56:45.656Z,11.67
